createdAt,value
2018-07-06T00:00:11.835Z,17.23
2018-07-06T00:01:11.828Z,17.26
2018-07-06T00:02:11.906Z,17.14
2018-07-06T00:03:11.797Z,17.12
2018-07-06T00:04:11.784Z,17.04
2018-07-06T00:05:11.769Z,16.93
2018-07-06T00:06:11.757Z,16.91
2018-07-06T00:07:11.743Z,17.03
2018-07-06T00:08:11.726Z,16.97
2018-07-06T00:09:11.718Z,16.93
2018-07-06T00:10:11.705Z,16.83
2018-07-06T00:11:11.688Z,16.97
2018-07-06T00:12:11.674Z,16.89
2018-07-06T00:13:11.668Z,16.82
2018-07-06T00:14:11.642Z,16.88
2018-07-06T00:15:11.628Z,16.94
2018-07-06T00:16:11.616Z,16.89
2018-07-06T00:17:11.604Z,16.94
2018-07-06T00:18:11.598Z,17.01
2018-07-06T00:19:11.577Z,17.06
2018-07-06T00:20:11.564Z,17.07
2018-07-06T00:21:11.547Z,17.03
2018-07-06T00:22:11.533Z,16.94
2018-07-06T00:23:11.525Z,16.89
2018-07-06T00:24:11.506Z,16.81
2018-07-06T00:25:11.495Z,16.83
2018-07-06T00:26:11.486Z,16.88
2018-07-06T00:27:11.470Z,16.76
2018-07-06T00:28:11.455Z,16.71
2018-07-06T00:29:11.485Z,16.63
2018-07-06T00:30:11.423Z,16.67
2018-07-06T00:31:11.411Z,16.66
2018-07-06T00:32:11.397Z,16.63
2018-07-06T00:33:11.384Z,16.68
2018-07-06T00:34:11.367Z,16.68
2018-07-06T00:35:11.357Z,16.67
2018-07-06T00:36:11.340Z,16.73
2018-07-06T00:37:11.325Z,16.68
2018-07-06T00:38:11.317Z,16.66
2018-07-06T00:39:11.304Z,16.68
2018-07-06T00:40:11.290Z,16.58
2018-07-06T00:41:11.273Z,16.60
2018-07-06T00:42:11.276Z,16.58
2018-07-06T00:43:11.240Z,16.61
2018-07-06T00:44:11.235Z,16.67
2018-07-06T00:45:11.263Z,16.67
2018-07-06T00:46:11.201Z,16.61
2018-07-06T00:47:11.194Z,16.67
2018-07-06T00:48:11.175Z,16.66
2018-07-06T00:49:11.161Z,16.67
2018-07-06T00:50:11.144Z,16.64
2018-07-06T00:51:11.130Z,16.57
2018-07-06T00:52:11.112Z,16.57
2018-07-06T00:53:11.112Z,16.46
2018-07-06T00:54:11.090Z,16.46
2018-07-06T00:55:11.072Z,16.57
2018-07-06T00:56:11.059Z,16.52
2018-07-06T00:57:11.049Z,16.46
2018-07-06T00:58:11.034Z,16.56
2018-07-06T00:59:11.022Z,16.60
2018-07-06T01:00:11.002Z,16.49
2018-07-06T01:01:11.041Z,16.52
2018-07-06T01:02:10.975Z,16.57
2018-07-06T01:03:10.962Z,16.42
2018-07-06T01:04:11.002Z,16.57
2018-07-06T01:05:10.936Z,16.52
2018-07-06T01:06:10.924Z,16.50
2018-07-06T01:07:10.906Z,16.48
2018-07-06T01:08:10.892Z,16.34
2018-07-06T01:09:10.898Z,16.34
2018-07-06T01:10:10.895Z,16.33
2018-07-06T01:11:10.854Z,16.34
2018-07-06T01:12:10.836Z,16.24
2018-07-06T01:13:10.824Z,16.28
2018-07-06T01:14:10.810Z,16.25
2018-07-06T01:15:10.796Z,16.28
2018-07-06T01:16:10.782Z,16.30
2018-07-06T01:17:10.774Z,16.31
2018-07-06T01:18:10.756Z,16.34
2018-07-06T01:19:10.746Z,16.30
2018-07-06T01:20:10.726Z,16.38
2018-07-06T01:21:10.709Z,16.34
2018-07-06T01:22:10.703Z,16.35
2018-07-06T01:23:10.693Z,16.46
2018-07-06T01:24:10.671Z,16.45
2018-07-06T01:25:10.656Z,16.46
2018-07-06T01:26:10.644Z,16.53
2018-07-06T01:27:10.632Z,16.46
2018-07-06T01:28:10.715Z,16.53
2018-07-06T01:29:10.601Z,16.49
2018-07-06T01:30:10.585Z,16.50
2018-07-06T01:31:10.673Z,16.56
2018-07-06T01:32:10.558Z,16.58
2018-07-06T01:33:10.545Z,16.56
2018-07-06T01:34:10.529Z,16.66
2018-07-06T01:35:10.527Z,16.66
2018-07-06T01:36:10.505Z,16.78
2018-07-06T01:37:10.484Z,16.85
2018-07-06T01:38:10.472Z,16.83
2018-07-06T01:39:10.458Z,16.85
2018-07-06T01:40:10.445Z,16.76
2018-07-06T01:41:10.441Z,16.82
2018-07-06T01:42:10.416Z,16.96
2018-07-06T01:43:10.405Z,16.85
2018-07-06T01:44:10.395Z,16.83
2018-07-06T01:45:10.377Z,16.79
2018-07-06T01:46:10.360Z,16.88
2018-07-06T01:47:10.378Z,16.82
2018-07-06T01:48:10.336Z,16.85
2018-07-06T01:49:10.323Z,16.86
2018-07-06T01:50:10.308Z,16.96
2018-07-06T01:51:10.291Z,17.07
2018-07-06T01:52:10.284Z,17.04
2018-07-06T01:53:10.268Z,17.01
2018-07-06T01:54:10.250Z,17.08
2018-07-06T01:55:10.236Z,17.07
2018-07-06T01:56:10.232Z,17.00
2018-07-06T01:57:10.211Z,16.97
2018-07-06T01:58:10.202Z,16.98
2018-07-06T01:59:10.181Z,16.94
2018-07-06T02:00:10.165Z,17.01
2018-07-06T02:01:10.155Z,17.01
2018-07-06T02:02:10.136Z,16.88
2018-07-06T02:03:10.126Z,16.89
2018-07-06T02:04:10.109Z,16.91
2018-07-06T02:05:10.096Z,16.93
2018-07-06T02:06:10.085Z,16.86
2018-07-06T02:07:10.069Z,17.00
2018-07-06T02:08:10.063Z,16.97
2018-07-06T02:09:10.043Z,17.00
2018-07-06T02:10:10.026Z,16.97
2018-07-06T02:11:10.050Z,16.98
2018-07-06T02:12:10.001Z,17.03
2018-07-06T02:13:09.985Z,17.08
2018-07-06T02:14:09.976Z,17.03
2018-07-06T02:15:09.961Z,17.03
2018-07-06T02:16:09.943Z,17.06
2018-07-06T02:17:09.931Z,17.07
2018-07-06T02:18:09.918Z,17.07
2018-07-06T02:19:09.906Z,17.03
2018-07-06T02:20:09.890Z,16.97
2018-07-06T02:21:09.874Z,17.03
2018-07-06T02:22:09.861Z,16.96
2018-07-06T02:23:09.847Z,17.07
2018-07-06T02:24:09.832Z,17.11
2018-07-06T02:25:09.820Z,16.97
2018-07-06T02:26:09.808Z,17.12
2018-07-06T02:27:09.792Z,17.15
2018-07-06T02:28:09.778Z,17.06
2018-07-06T02:29:09.763Z,17.11
2018-07-06T02:30:09.801Z,17.07
2018-07-06T02:31:09.739Z,17.03
2018-07-06T02:32:09.726Z,17.00
2018-07-06T02:33:09.705Z,16.97
2018-07-06T02:34:09.695Z,16.97
2018-07-06T02:35:09.681Z,17.00
2018-07-06T02:36:09.665Z,17.06
2018-07-06T02:37:09.652Z,17.08
2018-07-06T02:38:09.637Z,17.03
2018-07-06T02:39:09.628Z,17.11
2018-07-06T02:40:09.609Z,17.15
2018-07-06T02:41:09.605Z,17.01
2018-07-06T02:42:09.597Z,16.97
2018-07-06T02:43:09.571Z,16.94
2018-07-06T02:44:09.554Z,16.97
2018-07-06T02:45:09.546Z,16.88
2018-07-06T02:46:09.525Z,16.89
2018-07-06T02:47:09.512Z,16.89
2018-07-06T02:48:09.500Z,16.96
2018-07-06T02:49:09.486Z,16.91
2018-07-06T02:50:09.474Z,16.89
2018-07-06T02:51:09.461Z,16.86
2018-07-06T02:52:09.446Z,16.88
2018-07-06T02:53:09.430Z,16.85
2018-07-06T02:54:09.459Z,16.76
2018-07-06T02:55:09.488Z,16.79
2018-07-06T02:56:09.390Z,16.68
2018-07-06T02:57:09.378Z,16.63
2018-07-06T02:58:09.361Z,16.79
2018-07-06T02:59:09.350Z,16.71
2018-07-06T03:00:09.332Z,16.79
2018-07-06T03:01:09.318Z,16.73
2018-07-06T03:02:09.304Z,16.88
2018-07-06T03:03:09.296Z,16.81
2018-07-06T03:04:09.285Z,16.89
2018-07-06T03:05:09.266Z,16.86
2018-07-06T03:06:09.245Z,16.89
2018-07-06T03:07:09.230Z,16.89
2018-07-06T03:08:09.222Z,16.96
2018-07-06T03:09:09.215Z,16.98
2018-07-06T03:10:09.195Z,16.96
2018-07-06T03:11:09.184Z,16.89
2018-07-06T03:12:09.165Z,16.94
2018-07-06T03:13:09.151Z,16.98
2018-07-06T03:14:09.135Z,17.03
2018-07-06T03:15:09.133Z,16.97
2018-07-06T03:16:09.103Z,16.93
2018-07-06T03:17:09.096Z,16.97
2018-07-06T03:18:09.079Z,16.98
2018-07-06T03:19:09.063Z,16.94
2018-07-06T03:20:09.049Z,16.97
2018-07-06T03:21:09.039Z,16.91
2018-07-06T03:22:09.027Z,16.96
2018-07-06T03:23:09.010Z,17.03
2018-07-06T03:24:08.995Z,17.06
2018-07-06T03:25:08.978Z,17.08
2018-07-06T03:26:08.964Z,16.97
2018-07-06T03:27:08.951Z,16.97
2018-07-06T03:28:09.051Z,16.91
2018-07-06T03:29:09.070Z,16.91
2018-07-06T03:30:08.913Z,17.00
2018-07-06T03:31:08.895Z,17.00
2018-07-06T03:32:08.908Z,17.03
2018-07-06T03:33:08.866Z,17.04
2018-07-06T03:34:08.849Z,17.00
2018-07-06T03:35:08.844Z,16.93
2018-07-06T03:36:08.825Z,16.88
2018-07-06T03:37:08.809Z,16.89
2018-07-06T03:38:08.802Z,16.91
2018-07-06T03:39:08.779Z,16.96
2018-07-06T03:40:08.768Z,16.93
2018-07-06T03:41:08.750Z,16.96
2018-07-06T03:42:08.738Z,16.96
2018-07-06T03:43:08.725Z,16.94
2018-07-06T03:44:08.711Z,17.01
2018-07-06T03:45:08.697Z,16.94
2018-07-06T03:46:08.684Z,16.96
2018-07-06T03:47:08.675Z,16.97
2018-07-06T03:48:08.713Z,17.01
2018-07-06T03:49:08.639Z,17.01
2018-07-06T03:50:08.632Z,17.08
2018-07-06T03:51:08.612Z,17.16
2018-07-06T03:52:08.596Z,17.08
2018-07-06T03:53:08.581Z,17.07
2018-07-06T03:54:08.569Z,17.14
2018-07-06T03:55:08.555Z,17.08
2018-07-06T03:56:08.542Z,16.98
2018-07-06T03:57:08.525Z,16.89
2018-07-06T03:58:08.513Z,16.88
2018-07-06T03:59:08.502Z,16.81
2018-07-06T04:00:08.485Z,16.89
2018-07-06T04:01:08.479Z,16.91
2018-07-06T04:02:08.457Z,16.91
2018-07-06T04:03:08.447Z,16.94
2018-07-06T04:04:08.427Z,17.03
2018-07-06T04:05:08.415Z,17.03
2018-07-06T04:06:08.414Z,16.86
2018-07-06T04:07:08.383Z,16.81
2018-07-06T04:08:08.372Z,16.82
2018-07-06T04:09:08.493Z,16.75
2018-07-06T04:10:08.343Z,16.86
2018-07-06T04:11:08.327Z,16.83
2018-07-06T04:12:08.312Z,16.85
2018-07-06T04:13:08.298Z,16.88
2018-07-06T04:14:08.285Z,16.97
2018-07-06T04:15:08.270Z,16.79
2018-07-06T04:16:08.284Z,16.83
2018-07-06T04:17:08.242Z,16.89
2018-07-06T04:18:08.225Z,16.81
2018-07-06T04:19:08.214Z,16.91
2018-07-06T04:20:08.202Z,16.93
2018-07-06T04:21:08.185Z,16.88
2018-07-06T04:22:08.169Z,16.89
2018-07-06T04:23:08.184Z,16.89
2018-07-06T04:24:08.140Z,16.96
2018-07-06T04:25:08.128Z,17.06
2018-07-06T04:26:08.113Z,17.01
2018-07-06T04:27:08.104Z,17.03
2018-07-06T04:28:08.082Z,17.04
2018-07-06T04:29:08.067Z,17.07
2018-07-06T04:30:08.052Z,17.06
2018-07-06T04:31:08.042Z,17.12
2018-07-06T04:32:08.025Z,17.18
2018-07-06T04:33:08.021Z,17.11
2018-07-06T04:34:08.008Z,17.11
2018-07-06T04:35:07.984Z,17.06
2018-07-06T04:36:07.976Z,17.00
2018-07-06T04:37:07.955Z,17.01
2018-07-06T04:38:07.940Z,17.04
2018-07-06T04:39:07.923Z,17.11
2018-07-06T04:40:07.908Z,17.15
2018-07-06T04:41:07.897Z,17.15
2018-07-06T04:42:07.891Z,17.07
2018-07-06T04:43:07.867Z,17.01
2018-07-06T04:44:07.865Z,17.12
2018-07-06T04:45:07.836Z,17.07
2018-07-06T04:46:07.825Z,17.03
2018-07-06T04:47:07.808Z,16.97
2018-07-06T04:48:07.795Z,17.04
2018-07-06T04:49:07.932Z,17.07
2018-07-06T04:50:07.766Z,16.94
2018-07-06T04:51:07.788Z,17.01
2018-07-06T04:52:07.741Z,17.01
2018-07-06T04:53:07.723Z,17.07
2018-07-06T04:54:07.708Z,17.11
2018-07-06T04:55:07.705Z,17.08
2018-07-06T04:56:07.684Z,17.08
2018-07-06T04:57:07.669Z,17.06
2018-07-06T04:58:07.650Z,17.07
2018-07-06T04:59:07.637Z,16.98
2018-07-06T05:00:07.623Z,17.03
2018-07-06T05:01:07.618Z,16.96
2018-07-06T05:02:07.596Z,17.06
2018-07-06T05:03:07.580Z,17.08
2018-07-06T05:04:07.564Z,17.01
2018-07-06T05:05:07.551Z,17.03
2018-07-06T05:06:07.534Z,16.94
2018-07-06T05:07:07.526Z,16.97
2018-07-06T05:08:07.560Z,16.94
2018-07-06T05:09:07.495Z,16.86
2018-07-06T05:10:07.480Z,16.98
2018-07-06T05:11:07.516Z,16.97
2018-07-06T05:12:07.453Z,17.11
2018-07-06T05:13:07.435Z,17.00
2018-07-06T05:14:07.464Z,17.01
2018-07-06T05:15:07.408Z,17.00
2018-07-06T05:16:07.393Z,17.00
2018-07-06T05:17:07.384Z,16.97
2018-07-06T05:18:07.361Z,17.00
2018-07-06T05:19:07.358Z,17.06
2018-07-06T05:20:07.342Z,17.07
2018-07-06T05:21:07.321Z,17.08
2018-07-06T05:22:07.304Z,17.07
2018-07-06T05:23:07.292Z,17.04
2018-07-06T05:24:07.279Z,17.06
2018-07-06T05:25:07.263Z,17.12
2018-07-06T05:26:07.248Z,17.15
2018-07-06T05:27:07.238Z,17.11
2018-07-06T05:28:07.221Z,17.07
2018-07-06T05:29:07.205Z,17.11
2018-07-06T05:30:07.209Z,17.14
2018-07-06T05:31:07.175Z,17.11
2018-07-06T05:32:07.165Z,17.11
2018-07-06T05:33:07.149Z,17.07
2018-07-06T05:34:07.133Z,17.04
2018-07-06T05:35:07.168Z,17.12
2018-07-06T05:36:07.106Z,17.19
2018-07-06T05:37:07.090Z,17.12
2018-07-06T05:38:07.086Z,17.07
2018-07-06T05:39:07.062Z,17.11
2018-07-06T05:40:07.047Z,17.03
2018-07-06T05:41:07.030Z,17.03
2018-07-06T05:42:07.023Z,17.00
2018-07-06T05:43:07.008Z,17.03
2018-07-06T05:44:06.992Z,17.14
2018-07-06T05:45:06.977Z,17.14
2018-07-06T05:46:06.960Z,17.14
2018-07-06T05:47:06.949Z,17.23
2018-07-06T05:48:06.932Z,17.18
2018-07-06T05:49:06.915Z,17.22
2018-07-06T05:50:06.904Z,17.12
2018-07-06T05:51:06.891Z,17.23
2018-07-06T05:52:06.872Z,17.16
2018-07-06T05:53:06.856Z,17.19
2018-07-06T05:54:06.872Z,17.23
2018-07-06T05:55:06.829Z,17.23
2018-07-06T05:56:06.812Z,17.22
2018-07-06T05:57:06.800Z,17.26
2018-07-06T05:58:06.791Z,17.34
2018-07-06T05:59:06.780Z,17.43
2018-07-06T06:00:06.754Z,17.30
2018-07-06T06:01:06.746Z,17.22
2018-07-06T06:02:06.728Z,17.19
2018-07-06T06:03:06.715Z,17.22
2018-07-06T06:04:06.701Z,17.22
2018-07-06T06:05:06.681Z,17.18
2018-07-06T06:06:06.677Z,17.21
2018-07-06T06:07:06.655Z,17.26
2018-07-06T06:08:06.641Z,17.23
2018-07-06T06:09:06.626Z,17.18
2018-07-06T06:10:06.714Z,17.25
2018-07-06T06:11:06.604Z,17.25
2018-07-06T06:12:06.619Z,17.34
2018-07-06T06:13:06.571Z,17.36
2018-07-06T06:14:06.555Z,17.37
2018-07-06T06:15:06.548Z,17.46
2018-07-06T06:16:06.545Z,17.34
2018-07-06T06:17:06.518Z,17.44
2018-07-06T06:18:06.511Z,17.48
2018-07-06T06:19:06.496Z,17.64
2018-07-06T06:20:06.466Z,17.74
2018-07-06T06:22:06.442Z,17.77
2018-07-06T06:23:06.425Z,17.78
2018-07-06T06:24:06.409Z,17.81
2018-07-06T06:25:06.398Z,17.84
2018-07-06T06:26:06.381Z,17.81
2018-07-06T06:27:06.366Z,17.93
2018-07-06T06:28:06.356Z,17.92
2018-07-06T06:29:06.340Z,18.05
2018-07-06T06:30:06.327Z,18.15
2018-07-06T06:31:06.309Z,18.14
2018-07-06T06:32:06.295Z,18.11
2018-07-06T06:33:06.308Z,18.11
2018-07-06T06:34:06.277Z,18.12
2018-07-06T06:35:06.254Z,18.20
2018-07-06T06:36:06.242Z,18.23
2018-07-06T06:37:06.225Z,18.35
2018-07-06T06:38:06.217Z,18.35
2018-07-06T06:39:06.197Z,18.32
2018-07-06T06:40:06.186Z,18.37
2018-07-06T06:41:06.169Z,18.41
2018-07-06T06:42:06.168Z,18.45
2018-07-06T06:43:06.145Z,18.57
2018-07-06T06:44:06.128Z,18.57
2018-07-06T06:45:06.115Z,18.66
2018-07-06T06:46:06.101Z,18.63
2018-07-06T06:47:06.089Z,18.67
2018-07-06T06:48:06.076Z,18.80
2018-07-06T06:49:06.074Z,18.58
2018-07-06T06:50:06.046Z,18.58
2018-07-06T06:51:06.036Z,18.60
2018-07-06T06:52:06.021Z,18.70
2018-07-06T06:53:06.061Z,18.78
2018-07-06T06:54:05.996Z,18.60
2018-07-06T06:55:05.978Z,18.72
2018-07-06T06:56:05.965Z,18.73
2018-07-06T06:57:05.950Z,18.81
2018-07-06T06:58:05.937Z,18.78
2018-07-06T06:59:05.975Z,18.84
2018-07-06T07:00:05.905Z,18.80
2018-07-06T07:01:05.961Z,18.72
2018-07-06T07:02:05.880Z,18.69
2018-07-06T07:03:05.876Z,18.60
2018-07-06T07:04:05.856Z,18.54
2018-07-06T07:05:05.843Z,18.60
2018-07-06T07:06:05.825Z,18.54
2018-07-06T07:07:05.813Z,18.54
2018-07-06T07:08:05.802Z,18.48
2018-07-06T07:09:05.786Z,18.45
2018-07-06T07:10:05.780Z,18.48
2018-07-06T07:11:05.761Z,18.55
2018-07-06T07:12:05.746Z,18.60
2018-07-06T07:13:05.728Z,18.78
2018-07-06T07:14:05.721Z,18.90
2018-07-06T07:15:05.703Z,18.88
2018-07-06T07:16:05.686Z,18.99
2018-07-06T07:17:05.676Z,19.06
2018-07-06T07:18:05.661Z,19.06
2018-07-06T07:19:05.645Z,19.13
2018-07-06T07:20:05.633Z,19.02
2018-07-06T07:21:05.620Z,18.95
2018-07-06T07:22:05.604Z,18.99
2018-07-06T07:23:05.591Z,19.02
2018-07-06T07:24:05.582Z,18.95
2018-07-06T07:25:05.570Z,18.95
2018-07-06T07:26:05.557Z,18.87
2018-07-06T07:27:05.542Z,18.82
2018-07-06T07:28:05.530Z,18.75
2018-07-06T07:29:05.521Z,18.70
2018-07-06T07:30:05.514Z,18.72
2018-07-06T07:31:05.480Z,18.67
2018-07-06T07:32:05.469Z,18.66
2018-07-06T07:33:05.457Z,18.76
2018-07-06T07:34:05.447Z,18.78
2018-07-06T07:35:05.428Z,18.81
2018-07-06T07:36:05.419Z,18.80
2018-07-06T07:37:05.401Z,18.76
2018-07-06T07:38:05.389Z,18.85
2018-07-06T07:39:05.375Z,18.85
2018-07-06T07:40:05.360Z,18.87
2018-07-06T07:41:05.352Z,18.95
2018-07-06T07:42:05.333Z,18.99
2018-07-06T07:43:05.320Z,18.95
2018-07-06T07:44:05.304Z,19.00
2018-07-06T07:45:05.291Z,19.10
2018-07-06T07:46:05.279Z,19.14
2018-07-06T07:47:05.270Z,19.06
2018-07-06T07:48:05.249Z,19.19
2018-07-06T07:49:05.235Z,19.19
2018-07-06T07:50:05.228Z,19.23
2018-07-06T07:51:05.211Z,19.31
2018-07-06T07:52:05.248Z,19.31
2018-07-06T07:53:05.180Z,19.23
2018-07-06T07:54:05.182Z,19.29
2018-07-06T07:55:05.171Z,19.36
2018-07-06T07:56:05.138Z,19.37
2018-07-06T07:57:05.140Z,19.36
2018-07-06T07:58:05.116Z,19.47
2018-07-06T07:59:05.102Z,19.48
2018-07-06T08:00:05.092Z,19.58
2018-07-06T08:01:05.382Z,19.65
2018-07-06T08:02:05.060Z,19.63
2018-07-06T08:03:05.043Z,19.78
2018-07-06T08:04:05.032Z,19.86
2018-07-06T08:05:05.015Z,19.81
2018-07-06T08:06:05.005Z,19.73
2018-07-06T08:07:04.999Z,19.71
2018-07-06T08:08:04.979Z,19.63
2018-07-06T08:09:04.981Z,19.65
2018-07-06T08:10:04.948Z,19.66
2018-07-06T08:11:04.944Z,19.69
2018-07-06T08:12:04.926Z,19.63
2018-07-06T08:13:04.911Z,19.68
2018-07-06T08:14:05.125Z,19.66
2018-07-06T08:15:04.886Z,19.73
2018-07-06T08:16:04.970Z,19.81
2018-07-06T08:17:04.857Z,19.95
2018-07-06T08:18:04.846Z,19.99
2018-07-06T08:19:04.885Z,20.10
2018-07-06T08:20:04.824Z,19.95
2018-07-06T08:21:04.808Z,19.96
2018-07-06T08:22:04.791Z,19.88
2018-07-06T08:23:04.779Z,19.84
2018-07-06T08:24:04.771Z,19.87
2018-07-06T08:25:04.752Z,19.78
2018-07-06T08:26:04.752Z,19.62
2018-07-06T08:27:04.728Z,19.59
2018-07-06T08:28:04.711Z,19.61
2018-07-06T08:29:04.694Z,19.55
2018-07-06T08:30:04.690Z,19.48
2018-07-06T08:31:04.676Z,19.59
2018-07-06T08:32:04.805Z,19.56
2018-07-06T08:33:04.646Z,19.56
2018-07-06T08:34:04.626Z,19.68
2018-07-06T08:35:04.678Z,19.77
2018-07-06T08:36:04.610Z,20.01
2018-07-06T08:37:04.588Z,20.14
2018-07-06T08:38:04.574Z,20.20
2018-07-06T08:39:04.562Z,20.47
2018-07-06T08:40:04.555Z,20.72
2018-07-06T08:41:04.537Z,20.70
2018-07-06T08:42:04.528Z,20.89
2018-07-06T08:43:04.507Z,20.92
2018-07-06T08:44:04.494Z,20.88
2018-07-06T08:45:04.483Z,21.12
2018-07-06T08:46:04.485Z,20.94
2018-07-06T08:47:04.451Z,20.84
2018-07-06T08:48:04.436Z,20.79
2018-07-06T08:49:04.427Z,20.84
2018-07-06T08:50:04.426Z,20.84
2018-07-06T08:51:04.410Z,20.80
2018-07-06T08:52:04.387Z,20.85
2018-07-06T08:53:04.376Z,20.97
2018-07-06T08:54:04.364Z,20.89
2018-07-06T08:55:04.346Z,20.85
2018-07-06T08:56:04.337Z,20.87
2018-07-06T08:57:04.323Z,20.95
2018-07-06T08:58:04.328Z,20.98
2018-07-06T08:59:04.296Z,20.97
2018-07-06T09:00:04.285Z,20.85
2018-07-06T09:01:04.276Z,21.07
2018-07-06T09:02:04.266Z,21.13
2018-07-06T09:03:04.260Z,21.14
2018-07-06T09:04:04.301Z,21.10
2018-07-06T09:05:04.227Z,20.98
2018-07-06T09:06:04.207Z,21.07
2018-07-06T09:07:04.194Z,21.10
2018-07-06T09:08:04.182Z,21.12
2018-07-06T09:09:04.166Z,21.27
2018-07-06T09:10:04.157Z,21.25
2018-07-06T09:11:04.150Z,21.22
2018-07-06T09:12:04.131Z,21.13
2018-07-06T09:13:04.121Z,20.98
2018-07-06T09:14:04.102Z,20.98
2018-07-06T09:15:04.095Z,20.88
2018-07-06T09:16:04.076Z,20.79
2018-07-06T09:17:04.062Z,21.01
2018-07-06T09:18:04.107Z,21.13
2018-07-06T09:19:04.038Z,21.44
2018-07-06T09:20:04.145Z,21.24
2018-07-06T09:21:04.012Z,21.42
2018-07-06T09:22:03.998Z,21.54
2018-07-06T09:23:03.997Z,21.80
2018-07-06T09:24:03.975Z,21.84
2018-07-06T09:25:03.960Z,21.88
2018-07-06T09:26:04.194Z,21.98
2018-07-06T09:27:03.937Z,22.07
2018-07-06T09:28:03.921Z,22.09
2018-07-06T09:29:03.913Z,21.92
2018-07-06T09:30:03.903Z,22.10
2018-07-06T09:31:03.896Z,22.21
2018-07-06T09:32:03.871Z,21.99
2018-07-06T09:33:03.860Z,21.90
2018-07-06T09:34:03.856Z,21.54
2018-07-06T09:35:03.834Z,21.71
2018-07-06T09:36:03.834Z,21.91
2018-07-06T09:37:03.807Z,22.09
2018-07-06T09:38:03.800Z,22.05
2018-07-06T09:39:03.789Z,22.10
2018-07-06T09:40:03.773Z,22.14
2018-07-06T09:41:03.761Z,22.37
2018-07-06T09:42:03.853Z,22.40
2018-07-06T09:43:03.746Z,22.37
2018-07-06T09:44:03.721Z,22.15
2018-07-06T09:45:03.714Z,22.07
2018-07-06T09:46:03.703Z,22.03
2018-07-06T09:47:03.695Z,22.07
2018-07-06T09:48:03.677Z,22.12
2018-07-06T09:49:03.668Z,22.21
2018-07-06T09:50:03.652Z,22.42
2018-07-06T09:51:03.725Z,22.31
2018-07-06T09:52:03.626Z,22.17
2018-07-06T09:53:03.636Z,22.09
2018-07-06T09:54:03.617Z,21.98
2018-07-06T09:55:03.599Z,22.03
2018-07-06T09:56:03.575Z,22.05
2018-07-06T09:57:03.565Z,22.06
2018-07-06T09:58:03.736Z,22.09
2018-07-06T09:59:03.550Z,22.14
2018-07-06T10:00:03.535Z,22.02
2018-07-06T10:01:03.516Z,22.20
2018-07-06T10:02:03.509Z,22.25
2018-07-06T10:03:03.493Z,22.33
2018-07-06T10:04:03.479Z,22.45
2018-07-06T10:05:03.470Z,22.79
2018-07-06T10:06:03.465Z,23.01
2018-07-06T10:07:03.455Z,23.15
2018-07-06T10:08:03.430Z,23.20
2018-07-06T10:09:03.422Z,23.27
2018-07-06T10:10:03.417Z,23.22
2018-07-06T10:11:03.477Z,23.22
2018-07-06T10:12:03.384Z,23.27
2018-07-06T10:13:03.374Z,22.90
2018-07-06T10:14:03.480Z,22.86
2018-07-06T10:15:03.346Z,23.01
2018-07-06T10:16:03.332Z,22.82
2018-07-06T10:17:03.380Z,22.98
2018-07-06T10:18:03.310Z,23.05
2018-07-06T10:19:03.303Z,23.25
2018-07-06T10:20:03.288Z,23.36
2018-07-06T10:21:03.326Z,23.40
2018-07-06T10:22:03.264Z,23.60
2018-07-06T10:23:03.270Z,23.80
2018-07-06T10:24:03.246Z,23.93
2018-07-06T10:25:03.229Z,24.02
2018-07-06T10:26:03.223Z,23.80
2018-07-06T10:27:03.207Z,23.84
2018-07-06T10:28:03.197Z,23.78
2018-07-06T10:29:03.186Z,23.78
2018-07-06T10:30:03.175Z,23.68
2018-07-06T10:31:03.161Z,23.65
2018-07-06T10:32:03.146Z,23.66
2018-07-06T10:33:03.215Z,23.60
2018-07-06T10:34:03.130Z,23.73
2018-07-06T10:35:03.112Z,23.76
2018-07-06T10:36:03.104Z,23.88
2018-07-06T10:37:03.099Z,23.93
2018-07-06T10:38:03.177Z,23.95
2018-07-06T10:39:03.065Z,23.88
2018-07-06T10:40:03.084Z,23.85
2018-07-06T10:41:03.046Z,24.02
2018-07-06T10:42:03.043Z,24.13
2018-07-06T10:43:03.019Z,24.12
2018-07-06T10:44:03.009Z,24.06
2018-07-06T10:45:03.000Z,24.16
2018-07-06T10:46:02.985Z,24.22
2018-07-06T10:47:02.979Z,24.20
2018-07-06T10:48:02.963Z,24.30
2018-07-06T10:49:02.957Z,24.18
2018-07-06T10:50:02.947Z,24.18
2018-07-06T10:51:02.934Z,23.98
2018-07-06T10:52:02.917Z,23.98
2018-07-06T10:53:02.908Z,24.03
2018-07-06T10:54:02.920Z,24.13
2018-07-06T10:55:02.883Z,24.21
2018-07-06T10:56:02.872Z,24.20
2018-07-06T10:57:02.924Z,24.21
2018-07-06T10:58:02.855Z,24.32
2018-07-06T10:59:02.837Z,24.40
2018-07-06T11:00:02.826Z,24.45
2018-07-06T11:01:02.826Z,24.52
2018-07-06T11:02:02.816Z,24.37
2018-07-06T11:03:02.799Z,24.35
2018-07-06T11:04:02.800Z,24.35
2018-07-06T11:05:02.866Z,24.30
2018-07-06T11:06:02.767Z,24.47
2018-07-06T11:07:02.753Z,24.67
2018-07-06T11:08:02.736Z,24.68
2018-07-06T11:09:02.787Z,24.85
2018-07-06T11:10:02.775Z,24.80
2018-07-06T11:11:02.706Z,24.90
2018-07-06T11:12:02.697Z,24.87
2018-07-06T11:13:02.692Z,24.84
2018-07-06T11:14:02.688Z,24.87
2018-07-06T11:15:02.667Z,24.77
2018-07-06T11:16:02.651Z,24.53
2018-07-06T11:17:02.638Z,24.57
2018-07-06T11:18:02.694Z,24.60
2018-07-06T11:19:02.692Z,24.78
2018-07-06T11:20:02.606Z,24.87
2018-07-06T11:21:02.605Z,24.85
2018-07-06T11:22:02.602Z,24.69
2018-07-06T11:23:02.581Z,24.61
2018-07-06T11:24:02.563Z,24.67
2018-07-06T11:25:02.557Z,24.78
2018-07-06T11:26:02.542Z,24.81
2018-07-06T11:27:02.535Z,24.90
2018-07-06T11:28:02.522Z,24.95
2018-07-06T11:29:02.509Z,24.85
2018-07-06T11:30:02.498Z,24.81
2018-07-06T11:31:02.485Z,24.96
2018-07-06T11:32:02.482Z,25.03
2018-07-06T11:33:02.464Z,25.14
2018-07-06T11:34:02.558Z,24.96
2018-07-06T11:35:02.449Z,24.69
2018-07-06T11:36:02.440Z,24.52
2018-07-06T11:37:02.420Z,24.73
2018-07-06T11:38:02.543Z,24.77
2018-07-06T11:39:02.405Z,24.95
2018-07-06T11:40:02.400Z,25.10
2018-07-06T11:41:02.382Z,25.05
2018-07-06T11:42:02.376Z,24.91
2018-07-06T11:43:02.360Z,24.83
2018-07-06T11:44:02.346Z,24.88
2018-07-06T11:45:02.444Z,24.93
2018-07-06T11:46:02.327Z,24.78
2018-07-06T11:47:02.318Z,24.80
2018-07-06T11:48:02.316Z,24.65
2018-07-06T11:49:02.293Z,25.10
2018-07-06T11:50:02.287Z,25.13
2018-07-06T11:51:02.270Z,25.32
2018-07-06T11:52:02.258Z,25.27
2018-07-06T11:53:02.280Z,25.46
2018-07-06T11:54:02.241Z,25.42
2018-07-06T11:55:02.235Z,25.32
2018-07-06T11:56:02.255Z,25.55
2018-07-06T11:57:02.211Z,25.45
2018-07-06T11:58:02.195Z,25.28
2018-07-06T11:59:02.195Z,25.09
2018-07-06T12:00:02.193Z,25.05
2018-07-06T12:01:02.160Z,24.98
2018-07-06T12:02:02.151Z,24.69
2018-07-06T12:03:02.139Z,24.91
2018-07-06T12:04:02.200Z,24.99
2018-07-06T12:05:02.117Z,25.17
2018-07-06T12:06:02.111Z,25.38
2018-07-06T12:07:02.100Z,25.46
2018-07-06T12:08:02.086Z,25.42
2018-07-06T12:09:02.083Z,25.38
2018-07-06T12:10:02.067Z,25.36
2018-07-06T12:11:02.056Z,25.18
2018-07-06T12:12:02.048Z,25.17
2018-07-06T12:13:02.033Z,25.18
2018-07-06T12:14:02.015Z,24.84
2018-07-06T12:15:02.006Z,24.50
2018-07-06T12:16:01.996Z,24.57
2018-07-06T12:17:01.989Z,24.57
2018-07-06T12:18:01.975Z,24.39
2018-07-06T12:19:01.971Z,24.55
2018-07-06T12:20:01.958Z,24.53
2018-07-06T12:21:01.994Z,24.69
2018-07-06T12:22:01.933Z,24.90
2018-07-06T12:23:01.921Z,25.20
2018-07-06T12:24:01.919Z,25.13
2018-07-06T12:25:01.906Z,25.20
2018-07-06T12:26:01.889Z,25.32
2018-07-06T12:27:01.892Z,25.46
2018-07-06T12:28:01.865Z,25.47
2018-07-06T12:29:01.899Z,25.36
2018-07-06T12:30:01.856Z,25.42
2018-07-06T12:31:01.836Z,25.13
2018-07-06T12:32:01.830Z,25.13
2018-07-06T12:33:01.813Z,25.10
2018-07-06T12:34:01.803Z,25.14
2018-07-06T12:35:01.797Z,25.27
2018-07-06T12:36:01.800Z,25.58
2018-07-06T12:37:01.792Z,25.73
2018-07-06T12:38:01.767Z,25.94
2018-07-06T12:39:01.765Z,25.67
2018-07-06T12:40:01.738Z,25.50
2018-07-06T12:41:01.734Z,24.93
2018-07-06T12:42:01.715Z,24.99
2018-07-06T12:43:01.705Z,24.88
2018-07-06T12:44:01.704Z,24.81
2018-07-06T12:45:01.702Z,24.88
2018-07-06T12:46:01.720Z,24.67
2018-07-06T12:47:01.668Z,24.76
2018-07-06T12:48:01.657Z,25.05
2018-07-06T12:49:01.642Z,25.43
2018-07-06T12:50:01.631Z,25.80
2018-07-06T12:51:01.616Z,25.77
2018-07-06T12:52:01.616Z,25.87
2018-07-06T12:53:01.596Z,25.58